Terminal Aerodrome Forecast
Issued by NWS

Home | Current Version | Previous Version | Text Only | Print | Product List | Glossary On
Versions: 1 2 3 4 5 6 7 8 9 10 11 12 13 14 15 16 17 18 19 20 21 22 23 24 25 26 27 28 29 30 31 32 33 34 35 36 37 38 39 40 41 42 43 44 45 46 47 48 49 50
811
FTUS43 KDTX 210222 AAC
TAFPTK
TAF AMD
KPTK 210222Z 2102/2124 21003KT 1 1/2SM BR OVC003
      TEMPO 2103/2105 1/2SM FG OVC002
     FM210500 VRB03KT 1/4SM FG VV002
     FM211400 17008KT 1SM BR OVC002
     FM211700 18008KT 3SM BR OVC006
     FM212000 18008KT 6SM BR SCT010 OVC020=

USA.gov is the U.S. government's official web portal to all federal, state and local government web resources and services.